Time;durP1;ratioP1;P1;durP2;ratioP2;P2;SDS_P1;SDS_P2;PMS_P1;PMS_P2;Temp;Humidity;BMP_temperature;BMP_pressure;BME280_temperature;BME280_humidity;BME280_pressure;Samples;Min_cycle;Max_cycle;Signal;HPM_P1;HPM_P2
2020/12/09 00:00:56;;;;;;;92.53;69.70;;;;;;;;;;5052215;28;20419;-81
2020/12/09 00:03:22;;;;;;;90.30;68.37;;;;;;;;;;5052133;28;20370;-81
2020/12/09 00:05:48;;;;;;;86.85;67.00;;;;;;;;;;5070235;28;20835;-80
2020/12/09 00:08:14;;;;;;;93.22;69.40;;;;;;;;;;5073356;28;20389;-81
2020/12/09 00:10:40;;;;;;;89.22;67.45;;;;;;;;;;5055795;28;20863;-81
2020/12/09 00:13:06;;;;;;;89.68;67.78;;;;;;;;;;5055922;28;20362;-82
2020/12/09 00:15:32;;;;;;;90.93;69.38;;;;;;;;;;5055686;28;20362;-81
2020/12/09 00:17:58;;;;;;;90.95;69.93;;;;;;;;;;5073956;28;20362;-81
2020/12/09 00:20:24;;;;;;;89.30;68.80;;;;;;;;;;5073365;28;20433;-81
2020/12/09 00:22:50;;;;;;;93.65;69.32;;;;;;;;;;5073507;28;20496;-81
2020/12/09 00:25:16;;;;;;;93.82;69.78;;;;;;;;;;5073455;28;20355;-81
2020/12/09 00:27:42;;;;;;;90.50;67.70;;;;;;;;;;5073358;28;20397;-81
2020/12/09 00:30:08;;;;;;;85.25;67.47;;;;;;;;;;5055232;28;20763;-81
2020/12/09 00:32:35;;;;;;;88.13;66.88;;;;;;;;;;5073360;28;20370;-81
2020/12/09 00:35:04;;;;;;;89.43;68.40;;;;;;;;;;5055533;28;20358;-81
2020/12/09 00:37:30;;;;;;;88.97;67.63;;;;;;;;;;5073105;28;20924;-81
2020/12/09 00:39:56;;;;;;;86.88;68.13;;;;;;;;;;5072996;28;20453;-81
2020/12/09 00:42:22;;;;;;;91.63;69.88;;;;;;;;;;5055138;28;20386;-81
2020/12/09 00:44:48;;;;;;;90.30;68.03;;;;;;;;;;5073057;28;20373;-81
2020/12/09 00:47:14;;;;;;;89.20;67.03;;;;;;;;;;5055035;28;20394;-81
2020/12/09 00:49:58;;;;;;;90.15;67.82;;;;;;;;;;5055514;28;20370;-81
2020/12/09 00:52:24;;;;;;;86.43;66.75;;;;;;;;;;5073058;28;20350;-81
2020/12/09 00:54:50;;;;;;;89.47;67.90;;;;;;;;;;5055075;28;20363;-81
2020/12/09 00:57:22;;;;;;;87.60;67.17;;;;;;;;;;5054996;28;20471;-81
2020/12/09 00:59:48;;;;;;;91.53;68.25;;;;;;;;;;5054640;28;20393;-82
2020/12/09 01:02:14;;;;;;;88.50;67.38;;;;;;;;;;5072959;28;20377;-81
2020/12/09 01:04:40;;;;;;;82.20;65.60;;;;;;;;;;5072756;28;20358;-81
2020/12/09 01:07:06;;;;;;;83.72;64.15;;;;;;;;;;5054783;28;20394;-81
2020/12/09 01:09:32;;;;;;;83.93;65.67;;;;;;;;;;5054756;28;20374;-81
2020/12/09 01:12:02;;;;;;;89.60;68.30;;;;;;;;;;5072647;28;20365;-81
2020/12/09 01:14:28;;;;;;;83.47;64.85;;;;;;;;;;5072468;28;20358;-81
2020/12/09 01:16:54;;;;;;;85.03;66.85;;;;;;;;;;5073016;28;20370;-81
2020/12/09 01:19:20;;;;;;;87.78;67.43;;;;;;;;;;5071893;28;20359;-81
2020/12/09 01:21:46;;;;;;;87.82;68.55;;;;;;;;;;5054582;28;20366;-81
2020/12/09 01:24:12;;;;;;;85.97;68.13;;;;;;;;;;5072420;28;20362;-82
2020/12/09 01:26:38;;;;;;;89.22;68.28;;;;;;;;;;5072474;28;20717;-81
2020/12/09 01:29:04;;;;;;;85.78;66.97;;;;;;;;;;5072210;28;20370;-81
2020/12/09 01:31:30;;;;;;;84.68;67.85;;;;;;;;;;5054335;28;20480;-81
2020/12/09 01:33:56;;;;;;;89.15;67.45;;;;;;;;;;5054491;28;20354;-81
2020/12/09 01:36:23;;;;;;;90.28;69.47;;;;;;;;;;5072549;28;20909;-82
2020/12/09 01:38:49;;;;;;;87.15;65.13;;;;;;;;;;5054276;28;20367;-81
2020/12/09 01:41:17;;;;;;;78.93;63.78;;;;;;;;;;5054095;28;20366;-81
2020/12/09 01:43:43;;;;;;;88.15;69.32;;;;;;;;;;5071939;28;21136;-81
2020/12/09 01:46:11;;;;;;;87.60;67.25;;;;;;;;;;5054054;28;21086;-81
2020/12/09 01:48:37;;;;;;;85.93;67.45;;;;;;;;;;5072044;28;20400;-81
2020/12/09 01:51:03;;;;;;;83.68;64.40;;;;;;;;;;5071628;28;20358;-81
2020/12/09 01:53:30;;;;;;;86.72;67.93;;;;;;;;;;5071925;28;20354;-82
2020/12/09 01:55:56;;;;;;;88.88;67.47;;;;;;;;;;5053733;28;20443;-81
2020/12/09 01:58:22;;;;;;;86.27;65.30;;;;;;;;;;5053961;28;20381;-81
2020/12/09 02:00:48;;;;;;;85.93;65.80;;;;;;;;;;5071815;28;20373;-81
2020/12/09 02:03:14;;;;;;;85.90;65.60;;;;;;;;;;5053649;28;20374;-81
2020/12/09 02:05:40;;;;;;;89.68;68.13;;;;;;;;;;5053680;28;20698;-81
2020/12/09 02:08:06;;;;;;;83.33;64.30;;;;;;;;;;5053577;28;20474;-81
2020/12/09 02:10:32;;;;;;;84.68;65.18;;;;;;;;;;5071339;28;20415;-81
2020/12/09 02:12:58;;;;;;;89.85;69.18;;;;;;;;;;5053747;28;21160;-81
2020/12/09 02:15:24;;;;;;;89.80;68.07;;;;;;;;;;5071427;28;20366;-81
2020/12/09 02:17:50;;;;;;;87.40;67.85;;;;;;;;;;5071248;28;20366;-81
2020/12/09 02:20:16;;;;;;;86.88;65.90;;;;;;;;;;5053147;28;20864;-81
2020/12/09 02:22:51;;;;;;;87.22;67.53;;;;;;;;;;5053287;28;20370;-82
2020/12/09 02:25:17;;;;;;;87.90;67.53;;;;;;;;;;5071674;28;20359;-81
2020/12/09 02:27:43;;;;;;;86.93;66.80;;;;;;;;;;5070905;28;20429;-81
2020/12/09 02:30:09;;;;;;;88.07;66.90;;;;;;;;;;5053189;28;20374;-81
2020/12/09 02:32:35;;;;;;;90.30;68.18;;;;;;;;;;5071289;28;20362;-81
2020/12/09 02:35:04;;;;;;;88.63;68.77;;;;;;;;;;5053142;28;20366;-80
2020/12/09 02:37:30;;;;;;;92.95;69.85;;;;;;;;;;5070939;28;20844;-81
2020/12/09 02:39:56;;;;;;;93.50;71.50;;;;;;;;;;5053076;28;20362;-81
2020/12/09 02:42:22;;;;;;;92.53;71.63;;;;;;;;;;5053143;28;20445;-81
2020/12/09 02:44:48;;;;;;;88.80;67.82;;;;;;;;;;5053162;28;20545;-81
2020/12/09 02:47:14;;;;;;;89.13;69.20;;;;;;;;;;5070665;28;20497;-81
2020/12/09 02:49:40;;;;;;;88.97;68.77;;;;;;;;;;5052746;28;20366;-81
2020/12/09 02:52:06;;;;;;;93.05;70.53;;;;;;;;;;5052888;28;20370;-81
2020/12/09 02:54:32;;;;;;;93.32;71.70;;;;;;;;;;5070812;28;20371;-81
2020/12/09 02:56:58;;;;;;;95.63;72.93;;;;;;;;;;5052730;28;20492;-81
2020/12/09 02:59:25;;;;;;;91.10;71.57;;;;;;;;;;5052535;28;20868;-81
2020/12/09 03:01:51;;;;;;;93.85;71.93;;;;;;;;;;5070718;28;20397;-81
2020/12/09 03:04:17;;;;;;;95.47;73.27;;;;;;;;;;5052546;28;20394;-81
2020/12/09 03:06:43;;;;;;;93.60;71.10;;;;;;;;;;5052530;28;20706;-81
2020/12/09 03:09:09;;;;;;;91.55;71.50;;;;;;;;;;5052781;28;20366;-81
2020/12/09 03:11:35;;;;;;;99.43;74.15;;;;;;;;;;5070461;28;20358;-81
2020/12/09 03:14:01;;;;;;;91.95;69.10;;;;;;;;;;5052572;28;20359;-81
2020/12/09 03:16:27;;;;;;;88.53;68.32;;;;;;;;;;5070480;28;20361;-81
2020/12/09 03:18:54;;;;;;;99.10;72.90;;;;;;;;;;5070559;28;20350;-81
2020/12/09 03:21:20;;;;;;;98.45;74.32;;;;;;;;;;5052175;28;20370;-81
2020/12/09 03:23:46;;;;;;;97.83;72.83;;;;;;;;;;5070407;28;20361;-81
2020/12/09 03:26:12;;;;;;;97.82;72.45;;;;;;;;;;5070387;28;20362;-81
2020/12/09 03:28:38;;;;;;;102.55;74.30;;;;;;;;;;5070366;28;20479;-81
2020/12/09 03:31:05;;;;;;;102.60;77.75;;;;;;;;;;5070338;28;20382;-81
2020/12/09 03:33:31;;;;;;;100.32;74.40;;;;;;;;;;5052314;28;20362;-81
2020/12/09 03:35:57;;;;;;;101.90;73.77;;;;;;;;;;5070291;28;20436;-81
2020/12/09 03:38:23;;;;;;;99.20;73.10;;;;;;;;;;5052473;28;20456;-81
2020/12/09 03:40:49;;;;;;;95.95;71.15;;;;;;;;;;5070120;28;20420;-81
2020/12/09 03:43:18;;;;;;;99.63;73.63;;;;;;;;;;5056309;28;20362;-81
2020/12/09 03:45:44;;;;;;;99.15;74.40;;;;;;;;;;5056511;28;20366;-81
2020/12/09 03:48:10;;;;;;;104.50;78.32;;;;;;;;;;5073994;28;20420;-81
2020/12/09 03:50:36;;;;;;;102.70;77.18;;;;;;;;;;5056022;28;20389;-81
2020/12/09 03:53:02;;;;;;;99.85;76.10;;;;;;;;;;5074292;28;20442;-81
2020/12/09 03:55:28;;;;;;;103.30;76.05;;;;;;;;;;5074018;28;20366;-82
2020/12/09 03:57:58;;;;;;;106.00;78.88;;;;;;;;;;5074768;28;20354;-81
2020/12/09 04:00:25;;;;;;;96.80;72.93;;;;;;;;;;5074303;28;20820;-81
2020/12/09 04:02:51;;;;;;;101.05;75.28;;;;;;;;;;5074314;28;20361;-81
2020/12/09 04:05:17;;;;;;;98.90;73.65;;;;;;;;;;5056317;28;20366;-81
2020/12/09 04:07:43;;;;;;;98.82;73.07;;;;;;;;;;5056543;28;20922;-82
2020/12/09 04:10:09;;;;;;;97.00;73.75;;;;;;;;;;5056281;28;20867;-82
2020/12/09 04:12:35;;;;;;;101.20;75.45;;;;;;;;;;5056330;28;20694;-81
2020/12/09 04:15:02;;;;;;;101.38;76.28;;;;;;;;;;5074321;28;20361;-81
2020/12/09 04:17:28;;;;;;;100.15;74.25;;;;;;;;;;5074300;28;20370;-82
2020/12/09 04:19:54;;;;;;;98.40;76.13;;;;;;;;;;5058409;28;20719;-81
2020/12/09 04:22:20;;;;;;;93.25;71.18;;;;;;;;;;5058524;28;20370;-81
2020/12/09 04:24:46;;;;;;;95.82;72.47;;;;;;;;;;5074760;28;20362;-82
2020/12/09 04:27:12;;;;;;;99.00;72.70;;;;;;;;;;5073947;28;20729;-81
2020/12/09 04:29:38;;;;;;;100.45;74.28;;;;;;;;;;5073716;28;20438;-82
2020/12/09 04:32:05;;;;;;;98.93;73.22;;;;;;;;;;5073936;28;20362;-82
2020/12/09 04:34:31;;;;;;;99.90;74.97;;;;;;;;;;5056095;28;20363;-82
2020/12/09 04:36:57;;;;;;;98.35;72.88;;;;;;;;;;5073652;28;20366;-81
2020/12/09 04:39:23;;;;;;;95.13;71.07;;;;;;;;;;5055763;28;20370;-81
2020/12/09 04:41:49;;;;;;;97.63;72.95;;;;;;;;;;5073589;28;20366;-82
2020/12/09 04:44:16;;;;;;;99.72;74.70;;;;;;;;;;5060125;28;20372;-81
2020/12/09 04:46:45;;;;;;;100.30;74.90;;;;;;;;;;5055604;28;20371;-82
2020/12/09 04:49:18;;;;;;;95.55;73.07;;;;;;;;;;5073169;28;20390;-82
2020/12/09 04:51:50;;;;;;;94.75;72.10;;;;;;;;;;5055594;28;20394;-82
2020/12/09 04:54:18;;;;;;;96.10;72.50;;;;;;;;;;5054325;28;20366;-81
2020/12/09 04:56:55;;;;;;;96.53;72.38;;;;;;;;;;5073023;28;20833;-82
2020/12/09 04:59:25;;;;;;;103.38;73.38;;;;;;;;;;5073706;28;20413;-82
2020/12/09 05:02:11;;;;;;;103.10;77.45;;;;;;;;;;5055606;28;20424;-82
2020/12/09 05:04:43;;;;;;;103.55;75.82;;;;;;;;;;5055391;28;20370;-82
2020/12/09 05:07:10;;;;;;;107.53;78.32;;;;;;;;;;5054565;28;20386;-82
2020/12/09 05:09:42;;;;;;;97.07;73.00;;;;;;;;;;5054921;28;20366;-81
2020/12/09 05:12:10;;;;;;;102.97;76.45;;;;;;;;;;5055323;28;20366;-82
2020/12/09 05:14:38;;;;;;;102.93;75.95;;;;;;;;;;5055094;28;20776;-81
2020/12/09 05:17:05;;;;;;;114.35;81.35;;;;;;;;;;5055118;28;20457;-82
2020/12/09 05:19:31;;;;;;;108.28;79.95;;;;;;;;;;5054757;28;20398;-82
2020/12/09 05:21:59;;;;;;;108.72;79.90;;;;;;;;;;5054665;28;20366;-82
2020/12/09 05:24:25;;;;;;;109.28;82.43;;;;;;;;;;5073310;28;20847;-82
2020/12/09 05:26:51;;;;;;;112.65;82.05;;;;;;;;;;5055203;28;20489;-82
2020/12/09 05:29:18;;;;;;;116.82;85.05;;;;;;;;;;5072753;28;20351;-83
2020/12/09 05:31:46;;;;;;;112.63;82.50;;;;;;;;;;5054700;28;20363;-83
2020/12/09 05:34:19;;;;;;;111.57;82.87;;;;;;;;;;5054809;28;20489;-82
2020/12/09 05:36:51;;;;;;;107.65;81.18;;;;;;;;;;5072389;28;20358;-83
2020/12/09 05:39:17;;;;;;;109.97;79.85;;;;;;;;;;5054183;28;20366;-82
2020/12/09 05:41:44;;;;;;;108.82;80.82;;;;;;;;;;5072555;28;20879;-81
2020/12/09 05:44:10;;;;;;;111.17;82.03;;;;;;;;;;5054143;28;20381;-81
2020/12/09 05:46:52;;;;;;;113.32;83.10;;;;;;;;;;5054298;28;20366;-81
2020/12/09 05:49:21;;;;;;;111.85;83.47;;;;;;;;;;5071934;28;20852;-82
2020/12/09 05:52:23;;;;;;;116.93;85.07;;;;;;;;;;5054367;28;20378;-81
2020/12/09 05:54:51;;;;;;;115.32;83.65;;;;;;;;;;4952602;29;20446;-87
2020/12/09 05:57:18;;;;;;;114.85;85.00;;;;;;;;;;5034717;28;20380;-84
2020/12/09 05:59:45;;;;;;;114.78;83.68;;;;;;;;;;5035662;28;20368;-86
2020/12/09 06:02:13;;;;;;;128.95;91.22;;;;;;;;;;5036113;28;20364;-85
2020/12/09 06:04:45;;;;;;;116.50;85.80;;;;;;;;;;5064240;28;20373;-85
2020/12/09 06:07:12;;;;;;;120.72;87.35;;;;;;;;;;5051967;28;21335;-86
2020/12/09 06:09:38;;;;;;;123.70;88.07;;;;;;;;;;5056484;28;20370;-85
2020/12/09 06:12:05;;;;;;;119.63;86.85;;;;;;;;;;5056510;28;20378;-86
2020/12/09 06:14:31;;;;;;;123.68;90.50;;;;;;;;;;5056081;28;20751;-86
2020/12/09 06:16:57;;;;;;;122.53;88.65;;;;;;;;;;5055666;28;20362;-87
2020/12/09 06:19:23;;;;;;;124.73;89.07;;;;;;;;;;5049323;28;20426;-89
2020/12/09 06:21:56;;;;;;;124.38;89.90;;;;;;;;;;5037296;28;20380;-89
2020/12/09 06:24:23;;;;;;;121.40;88.55;;;;;;;;;;5036436;28;20716;-86
2020/12/09 06:26:49;;;;;;;124.53;89.57;;;;;;;;;;5036114;28;20376;-85
2020/12/09 06:29:21;;;;;;;129.23;92.90;;;;;;;;;;5053315;28;20387;-87
2020/12/09 06:31:58;;;;;;;126.68;89.82;;;;;;;;;;5036018;28;20379;-85
2020/12/09 06:34:24;;;;;;;129.00;91.90;;;;;;;;;;5053821;28;20455;-86
2020/12/09 06:37:09;;;;;;;129.82;93.45;;;;;;;;;;5035301;28;20360;-89
2020/12/09 06:39:35;;;;;;;126.82;90.50;;;;;;;;;;5040823;28;20372;-85
2020/12/09 06:42:06;;;;;;;129.05;90.50;;;;;;;;;;5044104;28;20368;-85
2020/12/09 06:44:33;;;;;;;126.57;90.55;;;;;;;;;;5035316;28;20368;-85
2020/12/09 06:46:59;;;;;;;125.85;91.22;;;;;;;;;;5036219;28;20399;-85
2020/12/09 06:49:32;;;;;;;119.43;88.53;;;;;;;;;;5042923;28;20441;-88
2020/12/09 06:52:24;;;;;;;121.83;89.40;;;;;;;;;;5036578;28;20432;-86
2020/12/09 06:54:50;;;;;;;122.63;88.80;;;;;;;;;;5031459;28;20360;-85
2020/12/09 06:57:33;;;;;;;121.30;89.97;;;;;;;;;;5034925;28;20380;-86
2020/12/09 07:00:11;;;;;;;128.07;92.20;;;;;;;;;;5035270;28;20391;-85
2020/12/09 07:02:41;;;;;;;121.65;88.40;;;;;;;;;;5034968;28;20367;-85
2020/12/09 07:05:08;;;;;;;117.88;88.45;;;;;;;;;;5035253;28;20419;-86
2020/12/09 07:07:38;;;;;;;124.80;91.57;;;;;;;;;;5034964;28;20875;-85
2020/12/09 07:10:20;;;;;;;126.20;90.67;;;;;;;;;;5034888;28;20383;-85
2020/12/09 07:13:06;;;;;;;126.63;90.28;;;;;;;;;;5053164;28;20403;-86
2020/12/09 07:15:33;;;;;;;126.85;91.07;;;;;;;;;;5034948;28;20376;-85
2020/12/09 07:17:59;;;;;;;125.70;90.85;;;;;;;;;;5035290;28;20455;-91
2020/12/09 07:20:25;;;;;;;124.50;90.75;;;;;;;;;;5035563;28;20850;-89
2020/12/09 07:22:51;;;;;;;124.55;91.07;;;;;;;;;;5035676;28;20889;-85
2020/12/09 07:25:17;;;;;;;127.88;91.93;;;;;;;;;;5052605;28;20371;-86
2020/12/09 07:27:44;;;;;;;120.90;89.78;;;;;;;;;;5050230;28;20402;-84
2020/12/09 07:30:12;;;;;;;124.40;88.95;;;;;;;;;;5052855;28;20367;-82
2020/12/09 07:32:38;;;;;;;123.80;90.35;;;;;;;;;;5040696;28;20370;-84
2020/12/09 07:35:11;;;;;;;120.22;88.35;;;;;;;;;;5054036;28;20370;-82
2020/12/09 07:37:39;;;;;;;122.85;90.20;;;;;;;;;;5071230;28;20366;-82
2020/12/09 07:40:11;;;;;;;123.75;90.25;;;;;;;;;;5053249;28;20358;-87
2020/12/09 07:42:37;;;;;;;121.63;89.73;;;;;;;;;;5072716;28;20436;-88
2020/12/09 07:45:08;;;;;;;121.68;88.18;;;;;;;;;;5055045;28;20797;-86
2020/12/09 07:47:34;;;;;;;118.78;88.43;;;;;;;;;;5072587;28;20788;-89
2020/12/09 07:50:03;;;;;;;116.82;87.18;;;;;;;;;;5054816;28;20378;-86
2020/12/09 07:52:38;;;;;;;115.03;85.75;;;;;;;;;;5054905;28;20725;-87
2020/12/09 07:55:06;;;;;;;117.85;87.55;;;;;;;;;;5054856;28;21183;-86
2020/12/09 07:57:43;;;;;;;116.43;87.05;;;;;;;;;;5054928;28;20421;-90
2020/12/09 08:00:13;;;;;;;123.60;90.90;;;;;;;;;;5054233;28;20388;-85
2020/12/09 08:02:40;;;;;;;122.05;89.55;;;;;;;;;;5054721;28;20365;-85
2020/12/09 08:05:24;;;;;;;122.15;89.57;;;;;;;;;;5054635;28;20370;-84
2020/12/09 08:07:56;;;;;;;117.27;87.37;;;;;;;;;;5071998;28;20398;-85
2020/12/09 08:10:33;;;;;;;118.40;88.70;;;;;;;;;;5072168;28;20445;-87
2020/12/09 08:13:06;;;;;;;113.70;87.60;;;;;;;;;;5072719;28;20422;-86
2020/12/09 08:15:33;;;;;;;118.45;87.10;;;;;;;;;;5066448;28;20836;-84
2020/12/09 08:18:00;;;;;;;115.35;86.85;;;;;;;;;;5034793;28;20384;-85
2020/12/09 08:20:26;;;;;;;115.20;86.03;;;;;;;;;;5033987;28;20383;-86
2020/12/09 08:22:53;;;;;;;111.82;86.45;;;;;;;;;;5064502;28;20370;-87
2020/12/09 08:25:19;;;;;;;111.18;85.85;;;;;;;;;;5045525;28;20396;-85
2020/12/09 08:27:46;;;;;;;112.83;87.23;;;;;;;;;;5053599;28;20486;-85
2020/12/09 08:30:16;;;;;;;109.55;83.57;;;;;;;;;;5072199;28;20370;-89
2020/12/09 08:32:55;;;;;;;113.15;84.05;;;;;;;;;;5038263;28;20442;-87
2020/12/09 08:35:21;;;;;;;115.82;85.60;;;;;;;;;;5037654;28;20403;-86
2020/12/09 08:37:47;;;;;;;106.70;82.07;;;;;;;;;;5038536;28;20375;-88
2020/12/09 08:40:17;;;;;;;113.50;84.93;;;;;;;;;;5037575;28;20375;-86
2020/12/09 08:42:53;;;;;;;108.90;84.00;;;;;;;;;;5055297;28;20433;-84
2020/12/09 08:45:19;;;;;;;120.53;89.22;;;;;;;;;;5035923;28;20364;-81
2020/12/09 08:47:45;;;;;;;115.33;86.03;;;;;;;;;;5048153;28;20398;-87
2020/12/09 08:50:11;;;;;;;112.65;85.03;;;;;;;;;;5040849;28;20367;-85
2020/12/09 08:52:37;;;;;;;111.45;84.70;;;;;;;;;;5054871;28;20391;-85
2020/12/09 08:55:04;;;;;;;110.22;83.75;;;;;;;;;;5043224;28;20897;-83
2020/12/09 08:57:30;;;;;;;115.63;87.05;;;;;;;;;;5056275;28;20382;-80
2020/12/09 08:59:56;;;;;;;109.03;81.93;;;;;;;;;;5056016;28;20429;-82
2020/12/09 09:02:22;;;;;;;108.93;82.47;;;;;;;;;;5048341;28;20368;-82
2020/12/09 09:04:48;;;;;;;108.32;82.25;;;;;;;;;;5043927;28;20374;-81
2020/12/09 09:07:14;;;;;;;105.20;79.68;;;;;;;;;;5055278;28;20481;-82
2020/12/09 09:09:40;;;;;;;103.72;81.13;;;;;;;;;;5043084;28;20429;-81
2020/12/09 09:12:06;;;;;;;109.60;83.60;;;;;;;;;;5053383;28;20352;-81
2020/12/09 09:14:32;;;;;;;104.43;80.38;;;;;;;;;;5053033;28;20366;-80
2020/12/09 09:17:00;;;;;;;107.97;83.60;;;;;;;;;;5040837;28;20790;-81
2020/12/09 09:19:33;;;;;;;107.53;80.82;;;;;;;;;;5063250;28;20376;-83
2020/12/09 09:21:59;;;;;;;105.78;81.55;;;;;;;;;;5033826;28;20367;-83
2020/12/09 09:24:25;;;;;;;106.32;81.88;;;;;;;;;;5035872;28;20470;-85
2020/12/09 09:26:51;;;;;;;103.68;79.93;;;;;;;;;;5035342;28;20395;-85
2020/12/09 09:29:17;;;;;;;106.85;81.70;;;;;;;;;;5053381;28;20816;-85
2020/12/09 09:31:43;;;;;;;107.70;81.10;;;;;;;;;;5053167;28;20478;-85
2020/12/09 09:34:10;;;;;;;110.28;83.70;;;;;;;;;;5035470;28;20473;-84
2020/12/09 09:36:36;;;;;;;104.82;78.47;;;;;;;;;;5035939;28;20368;-84
2020/12/09 09:39:03;;;;;;;107.72;81.20;;;;;;;;;;5034762;28;20439;-85
2020/12/09 09:41:29;;;;;;;106.45;81.55;;;;;;;;;;5035847;28;20403;-85
2020/12/09 09:43:55;;;;;;;103.97;80.63;;;;;;;;;;5039393;28;20407;-87
2020/12/09 09:46:22;;;;;;;107.35;82.72;;;;;;;;;;5054286;28;20451;-85
2020/12/09 09:48:48;;;;;;;108.63;82.90;;;;;;;;;;5054202;28;20418;-86
2020/12/09 09:51:14;;;;;;;107.07;82.40;;;;;;;;;;5054534;28;20432;-86
2020/12/09 09:53:40;;;;;;;109.15;82.88;;;;;;;;;;5036484;28;20429;-84
2020/12/09 09:56:07;;;;;;;107.70;82.60;;;;;;;;;;5054508;28;20384;-86
2020/12/09 09:58:33;;;;;;;106.25;79.28;;;;;;;;;;5054153;28;20392;-85
2020/12/09 10:00:59;;;;;;;105.40;79.97;;;;;;;;;;5035888;28;20755;-85
2020/12/09 10:03:25;;;;;;;106.45;79.63;;;;;;;;;;5035776;28;20368;-86
2020/12/09 10:05:52;;;;;;;99.65;77.13;;;;;;;;;;5053688;28;20353;-85
2020/12/09 10:08:18;;;;;;;103.25;79.38;;;;;;;;;;5053472;28;20395;-85
2020/12/09 10:10:44;;;;;;;102.47;79.57;;;;;;;;;;5035188;28;20372;-85
2020/12/09 10:13:10;;;;;;;100.80;78.30;;;;;;;;;;5035627;28;20422;-85
2020/12/09 10:15:36;;;;;;;99.73;76.93;;;;;;;;;;5035766;28;20750;-85
2020/12/09 10:18:02;;;;;;;98.93;74.80;;;;;;;;;;5053563;28;20364;-85
2020/12/09 10:20:28;;;;;;;99.20;74.47;;;;;;;;;;5035464;28;20364;-86
2020/12/09 10:22:54;;;;;;;100.15;75.55;;;;;;;;;;5035503;28;20771;-86
2020/12/09 10:25:22;;;;;;;98.60;76.68;;;;;;;;;;5053599;28;20362;-86
2020/12/09 10:27:48;;;;;;;102.90;76.25;;;;;;;;;;5053088;28;20391;-85
2020/12/09 10:30:14;;;;;;;98.68;75.70;;;;;;;;;;5035252;28;20936;-86
2020/12/09 10:32:40;;;;;;;102.05;77.47;;;;;;;;;;5053756;28;20379;-86
2020/12/09 10:35:07;;;;;;;98.57;75.55;;;;;;;;;;5035703;28;20360;-85
2020/12/09 10:37:33;;;;;;;98.13;75.60;;;;;;;;;;5035095;28;20933;-85
2020/12/09 10:39:59;;;;;;;99.30;76.93;;;;;;;;;;5035248;28;20403;-85
2020/12/09 10:42:25;;;;;;;102.05;77.97;;;;;;;;;;5035123;28;20750;-85
2020/12/09 10:44:51;;;;;;;101.05;76.53;;;;;;;;;;5035273;28;20771;-86
2020/12/09 10:47:17;;;;;;;99.00;75.07;;;;;;;;;;5052929;28;20743;-85
2020/12/09 10:49:44;;;;;;;95.20;73.50;;;;;;;;;;5033484;28;20417;-86
2020/12/09 10:52:11;;;;;;;97.03;74.10;;;;;;;;;;5052049;28;20797;-86
2020/12/09 10:54:37;;;;;;;93.30;70.93;;;;;;;;;;5053035;28;20373;-87
2020/12/09 10:57:03;;;;;;;98.97;72.25;;;;;;;;;;5034796;28;20465;-88
2020/12/09 10:59:29;;;;;;;95.35;71.78;;;;;;;;;;5034920;28;20363;-85
2020/12/09 11:01:55;;;;;;;96.00;73.15;;;;;;;;;;5053110;28;20356;-86
2020/12/09 11:04:21;;;;;;;97.75;72.78;;;;;;;;;;5034735;28;20399;-86
2020/12/09 11:06:47;;;;;;;100.22;74.05;;;;;;;;;;5052675;28;20356;-86
2020/12/09 11:09:13;;;;;;;92.33;71.87;;;;;;;;;;5034977;28;20471;-87
2020/12/09 11:11:45;;;;;;;95.90;70.90;;;;;;;;;;5034565;28;20376;-86
2020/12/09 11:14:12;;;;;;;93.20;72.05;;;;;;;;;;5052188;28;20360;-85
2020/12/09 11:16:38;;;;;;;94.03;70.72;;;;;;;;;;5052289;28;20443;-86
2020/12/09 11:19:04;;;;;;;94.20;71.63;;;;;;;;;;5052384;28;20403;-86
2020/12/09 11:21:30;;;;;;;96.63;73.82;;;;;;;;;;5034667;28;20368;-86
2020/12/09 11:23:56;;;;;;;97.00;73.40;;;;;;;;;;5034158;28;20368;-84
2020/12/09 11:26:23;;;;;;;95.47;72.40;;;;;;;;;;5051441;28;20367;-81
2020/12/09 11:28:49;;;;;;;91.00;71.97;;;;;;;;;;5032847;28;20445;-82
2020/12/09 11:31:19;;;;;;;95.97;73.53;;;;;;;;;;5051253;28;20360;-83
2020/12/09 11:33:45;;;;;;;93.85;73.72;;;;;;;;;;5033690;28;20432;-82
2020/12/09 11:36:11;;;;;;;92.40;71.93;;;;;;;;;;5051763;28;20812;-79
2020/12/09 11:38:39;;;;;;;94.20;71.65;;;;;;;;;;5052880;28;20377;-82
2020/12/09 11:41:06;;;;;;;92.80;70.47;;;;;;;;;;5034488;28;20381;-86
2020/12/09 11:43:33;;;;;;;92.03;69.95;;;;;;;;;;5054677;28;20801;-81
2020/12/09 11:46:01;;;;;;;90.95;70.25;;;;;;;;;;5052671;28;20451;-82
2020/12/09 11:48:27;;;;;;;94.18;70.43;;;;;;;;;;5071053;28;20428;-82
2020/12/09 11:50:54;;;;;;;94.00;72.20;;;;;;;;;;5071402;28;20446;-78
2020/12/09 11:53:20;;;;;;;93.75;70.32;;;;;;;;;;5052948;28;20376;-78
2020/12/09 11:55:46;;;;;;;94.38;70.00;;;;;;;;;;5070767;28;20702;-83
2020/12/09 11:58:15;;;;;;;92.72;70.88;;;;;;;;;;5071299;28;20370;-82
2020/12/09 12:00:43;;;;;;;93.15;71.93;;;;;;;;;;5071001;28;20745;-84
2020/12/09 12:03:09;;;;;;;93.95;71.50;;;;;;;;;;5055457;28;20364;-79
2020/12/09 12:05:36;;;;;;;89.60;69.32;;;;;;;;;;5037078;28;20855;-82
2020/12/09 12:08:05;;;;;;;95.63;71.55;;;;;;;;;;5037115;28;20434;-81
2020/12/09 12:10:32;;;;;;;88.83;69.10;;;;;;;;;;5054758;28;20363;-81
2020/12/09 12:12:58;;;;;;;96.03;70.80;;;;;;;;;;5036975;28;20870;-82
2020/12/09 12:15:24;;;;;;;91.53;69.65;;;;;;;;;;5054451;28;20399;-79
2020/12/09 12:17:50;;;;;;;96.10;71.30;;;;;;;;;;5053051;28;20459;-81
2020/12/09 12:20:16;;;;;;;99.78;72.55;;;;;;;;;;5053145;28;20371;-79
2020/12/09 12:22:42;;;;;;;93.43;69.28;;;;;;;;;;5053957;28;20352;-79
2020/12/09 12:25:08;;;;;;;90.47;68.60;;;;;;;;;;5054038;28;20366;-79
2020/12/09 12:27:34;;;;;;;88.07;68.97;;;;;;;;;;5056269;28;20399;-78
2020/12/09 12:30:01;;;;;;;92.75;68.80;;;;;;;;;;5063823;28;20374;-78
2020/12/09 12:32:27;;;;;;;87.57;67.13;;;;;;;;;;5061555;28;20360;-79
2020/12/09 12:34:53;;;;;;;88.93;68.18;;;;;;;;;;5067771;28;20369;-80
2020/12/09 12:37:19;;;;;;;90.65;69.45;;;;;;;;;;5054600;28;20418;-78
2020/12/09 12:39:45;;;;;;;86.87;65.53;;;;;;;;;;5059318;28;20358;-78
2020/12/09 12:42:11;;;;;;;88.50;68.10;;;;;;;;;;5073496;28;20370;-78
2020/12/09 12:44:37;;;;;;;93.97;68.38;;;;;;;;;;5073181;28;20423;-80
2020/12/09 12:47:03;;;;;;;90.97;69.28;;;;;;;;;;5056134;28;20374;-80
2020/12/09 12:49:29;;;;;;;90.03;67.75;;;;;;;;;;5053093;28;20778;-78
2020/12/09 12:51:57;;;;;;;95.53;70.07;;;;;;;;;;5060921;28;20362;-81
2020/12/09 12:54:25;;;;;;;87.30;65.87;;;;;;;;;;5061282;28;20842;-78
2020/12/09 12:56:56;;;;;;;85.30;65.82;;;;;;;;;;5053450;28;20491;-78
2020/12/09 12:59:32;;;;;;;87.03;67.07;;;;;;;;;;5036581;28;20376;-78
2020/12/09 13:02:00;;;;;;;88.93;65.63;;;;;;;;;;5053652;28;20368;-78
2020/12/09 13:04:29;;;;;;;82.78;65.30;;;;;;;;;;5053405;28;20779;-81
2020/12/09 13:06:56;;;;;;;88.32;67.72;;;;;;;;;;5053471;28;20359;-80
2020/12/09 13:09:22;;;;;;;91.07;67.00;;;;;;;;;;5053370;28;20360;-79
2020/12/09 13:11:48;;;;;;;89.43;68.60;;;;;;;;;;5053320;28;20368;-81
2020/12/09 13:14:15;;;;;;;89.03;68.60;;;;;;;;;;5051426;28;20421;-78
2020/12/09 13:16:45;;;;;;;93.97;70.22;;;;;;;;;;5065655;28;20438;-78
2020/12/09 13:19:11;;;;;;;92.65;69.97;;;;;;;;;;5055009;28;20413;-79
2020/12/09 13:21:37;;;;;;;95.77;72.00;;;;;;;;;;5057736;28;20484;-78
2020/12/09 13:24:03;;;;;;;93.80;69.03;;;;;;;;;;5072848;28;20412;-83
2020/12/09 13:26:29;;;;;;;94.40;70.40;;;;;;;;;;5061346;28;20368;-78
2020/12/09 13:28:55;;;;;;;94.35;69.15;;;;;;;;;;5052382;28;20392;-78
2020/12/09 13:31:21;;;;;;;89.43;68.47;;;;;;;;;;5052451;28;20835;-78
2020/12/09 13:33:47;;;;;;;93.87;69.80;;;;;;;;;;5068632;28;20366;-79
2020/12/09 13:36:13;;;;;;;88.20;67.47;;;;;;;;;;5052581;28;20857;-81
2020/12/09 13:38:39;;;;;;;89.05;66.88;;;;;;;;;;5052882;28;20446;-80
2020/12/09 13:41:05;;;;;;;89.22;67.78;;;;;;;;;;5052522;28;20371;-83
2020/12/09 13:43:31;;;;;;;89.68;67.43;;;;;;;;;;5066187;28;20429;-79
2020/12/09 13:45:59;;;;;;;93.35;69.43;;;;;;;;;;5060657;28;20370;-79
2020/12/09 13:48:26;;;;;;;92.15;69.30;;;;;;;;;;5068585;28;20390;-84
2020/12/09 13:50:54;;;;;;;93.53;69.72;;;;;;;;;;5061288;28;20856;-79
2020/12/09 13:53:24;;;;;;;89.77;66.37;;;;;;;;;;5054671;28;20359;-84
2020/12/09 13:55:49;;;;;;;92.07;68.15;;;;;;;;;;5060871;28;20386;-82
2020/12/09 13:58:17;;;;;;;92.72;68.57;;;;;;;;;;5052609;28;20364;-79
2020/12/09 14:00:43;;;;;;;90.38;68.82;;;;;;;;;;5051634;28;20360;-80
2020/12/09 14:03:09;;;;;;;88.45;68.60;;;;;;;;;;5067864;28;20374;-78
2020/12/09 14:05:35;;;;;;;88.60;67.88;;;;;;;;;;5051551;28;20769;-80
2020/12/09 14:08:01;;;;;;;88.50;65.80;;;;;;;;;;5051696;28;20395;-79
2020/12/09 14:10:28;;;;;;;94.35;69.50;;;;;;;;;;5051828;28;20366;-78
2020/12/09 14:12:54;;;;;;;90.57;67.50;;;;;;;;;;5051814;28;20359;-78